sensor_id;sensor_type;location;lat;lon;timestamp;temperature;humidity
1329;DHT22;658;48.820;9.354;2022-12-07T00:01:45;22.10;40.90
1329;DHT22;658;48.820;9.354;2022-12-07T00:05:46;22.10;40.90
1329;DHT22;658;48.820;9.354;2022-12-07T00:09:47;22.10;40.90
1329;DHT22;658;48.820;9.354;2022-12-07T00:13:55;22.10;41.00
1329;DHT22;658;48.820;9.354;2022-12-07T00:17:55;22.10;41.00
1329;DHT22;658;48.820;9.354;2022-12-07T00:21:56;22.10;40.90
1329;DHT22;658;48.820;9.354;2022-12-07T00:26:03;22.10;41.00
1329;DHT22;658;48.820;9.354;2022-12-07T00:30:05;22.10;41.00
1329;DHT22;658;48.820;9.354;2022-12-07T00:34:14;22.10;41.00
1329;DHT22;658;48.820;9.354;2022-12-07T00:38:14;22.00;40.90
1329;DHT22;658;48.820;9.354;2022-12-07T00:42:15;22.00;40.90
1329;DHT22;658;48.820;9.354;2022-12-07T00:46:17;22.00;40.90
1329;DHT22;658;48.820;9.354;2022-12-07T00:50:17;22.00;40.90
1329;DHT22;658;48.820;9.354;2022-12-07T00:54:18;22.00;41.00
1329;DHT22;658;48.820;9.354;2022-12-07T00:58:19;22.00;40.90
1329;DHT22;658;48.820;9.354;2022-12-07T01:02:20;22.00;40.90
1329;DHT22;658;48.820;9.354;2022-12-07T01:06:25;22.00;40.90
1329;DHT22;658;48.820;9.354;2022-12-07T01:10:27;22.00;40.90
1329;DHT22;658;48.820;9.354;2022-12-07T01:14:28;22.00;40.90
1329;DHT22;658;48.820;9.354;2022-12-07T01:18:30;22.00;40.90
1329;DHT22;658;48.820;9.354;2022-12-07T01:22:35;22.00;40.90
1329;DHT22;658;48.820;9.354;2022-12-07T01:26:36;22.00;40.90
1329;DHT22;658;48.820;9.354;2022-12-07T01:30:36;22.00;40.90
1329;DHT22;658;48.820;9.354;2022-12-07T01:34:37;22.00;40.90
1329;DHT22;658;48.820;9.354;2022-12-07T01:38:38;22.00;40.90
1329;DHT22;658;48.820;9.354;2022-12-07T01:42:38;22.00;40.90
1329;DHT22;658;48.820;9.354;2022-12-07T01:46:40;21.90;40.70
1329;DHT22;658;48.820;9.354;2022-12-07T01:50:42;22.00;40.90
1329;DHT22;658;48.820;9.354;2022-12-07T01:54:47;21.90;40.80
1329;DHT22;658;48.820;9.354;2022-12-07T01:58:51;21.90;40.70
1329;DHT22;658;48.820;9.354;2022-12-07T02:03:13;22.00;40.90
1329;DHT22;658;48.820;9.354;2022-12-07T02:07:16;22.00;40.90
1329;DHT22;658;48.820;9.354;2022-12-07T02:11:17;21.90;40.70
1329;DHT22;658;48.820;9.354;2022-12-07T02:15:20;21.90;40.70
1329;DHT22;658;48.820;9.354;2022-12-07T02:27:47;21.90;40.70
1329;DHT22;658;48.820;9.354;2022-12-07T02:32:07;21.90;40.70
1329;DHT22;658;48.820;9.354;2022-12-07T02:36:28;21.90;40.70
1329;DHT22;658;48.820;9.354;2022-12-07T02:44:34;21.90;40.80
1329;DHT22;658;48.820;9.354;2022-12-07T02:48:37;21.90;40.70
1329;DHT22;658;48.820;9.354;2022-12-07T02:52:38;21.90;40.70
1329;DHT22;658;48.820;9.354;2022-12-07T02:56:49;21.90;40.70
1329;DHT22;658;48.820;9.354;2022-12-07T03:01:31;21.90;40.70
1329;DHT22;658;48.820;9.354;2022-12-07T03:06:08;21.90;40.70
1329;DHT22;658;48.820;9.354;2022-12-07T03:14:27;21.90;40.70
1329;DHT22;658;48.820;9.354;2022-12-07T03:18:32;21.80;40.70
1329;DHT22;658;48.820;9.354;2022-12-07T03:22:35;21.80;40.70
1329;DHT22;658;48.820;9.354;2022-12-07T03:26:42;21.80;40.60
1329;DHT22;658;48.820;9.354;2022-12-07T03:30:51;21.80;40.60
1329;DHT22;658;48.820;9.354;2022-12-07T03:39:41;21.80;40.70
1329;DHT22;658;48.820;9.354;2022-12-07T03:43:45;21.80;40.70
1329;DHT22;658;48.820;9.354;2022-12-07T03:47:53;21.80;40.70
1329;DHT22;658;48.820;9.354;2022-12-07T03:52:46;21.80;40.60
1329;DHT22;658;48.820;9.354;2022-12-07T03:56:27;21.80;41.20
1329;DHT22;658;48.820;9.354;2022-12-07T04:00:30;21.70;40.70
1329;DHT22;658;48.820;9.354;2022-12-07T04:04:30;21.70;40.60
1329;DHT22;658;48.820;9.354;2022-12-07T04:08:31;21.80;40.60
1329;DHT22;658;48.820;9.354;2022-12-07T04:12:32;21.70;40.50
1329;DHT22;658;48.820;9.354;2022-12-07T04:16:32;21.80;40.60
1329;DHT22;658;48.820;9.354;2022-12-07T04:20:33;21.70;40.50
1329;DHT22;658;48.820;9.354;2022-12-07T04:24:34;21.70;40.50
1329;DHT22;658;48.820;9.354;2022-12-07T04:28:35;21.70;40.50
1329;DHT22;658;48.820;9.354;2022-12-07T04:32:35;21.70;40.50
1329;DHT22;658;48.820;9.354;2022-12-07T04:36:36;21.70;40.50
1329;DHT22;658;48.820;9.354;2022-12-07T04:40:37;21.70;40.50
1329;DHT22;658;48.820;9.354;2022-12-07T04:44:38;21.70;40.50
1329;DHT22;658;48.820;9.354;2022-12-07T04:48:39;21.60;40.50
1329;DHT22;658;48.820;9.354;2022-12-07T04:52:39;21.60;40.40
1329;DHT22;658;48.820;9.354;2022-12-07T04:56:40;21.60;40.50
1329;DHT22;658;48.820;9.354;2022-12-07T05:00:41;21.60;40.50
1329;DHT22;658;48.820;9.354;2022-12-07T05:04:42;21.60;40.40
1329;DHT22;658;48.820;9.354;2022-12-07T05:08:43;21.60;40.40
1329;DHT22;658;48.820;9.354;2022-12-07T05:12:44;21.60;40.40
1329;DHT22;658;48.820;9.354;2022-12-07T05:16:47;21.60;40.30
1329;DHT22;658;48.820;9.354;2022-12-07T05:20:49;21.70;40.40
1329;DHT22;658;48.820;9.354;2022-12-07T05:24:49;21.60;40.40
1329;DHT22;658;48.820;9.354;2022-12-07T05:28:51;21.60;40.40
1329;DHT22;658;48.820;9.354;2022-12-07T05:32:52;21.60;40.50
1329;DHT22;658;48.820;9.354;2022-12-07T05:36:53;21.60;40.40
1329;DHT22;658;48.820;9.354;2022-12-07T05:40:53;21.60;40.40
1329;DHT22;658;48.820;9.354;2022-12-07T05:44:54;21.60;40.60
1329;DHT22;658;48.820;9.354;2022-12-07T05:48:55;21.60;40.60
1329;DHT22;658;48.820;9.354;2022-12-07T05:52:55;21.60;40.50
1329;DHT22;658;48.820;9.354;2022-12-07T05:56:56;21.50;40.50
1329;DHT22;658;48.820;9.354;2022-12-07T06:00:57;21.60;40.50
1329;DHT22;658;48.820;9.354;2022-12-07T06:04:57;21.60;41.00
1329;DHT22;658;48.820;9.354;2022-12-07T06:08:58;21.60;40.40
1329;DHT22;658;48.820;9.354;2022-12-07T06:12:59;21.60;40.40
1329;DHT22;658;48.820;9.354;2022-12-07T06:17:00;21.60;40.30
1329;DHT22;658;48.820;9.354;2022-12-07T06:21:00;21.60;40.30
1329;DHT22;658;48.820;9.354;2022-12-07T06:25:01;21.60;40.30
1329;DHT22;658;48.820;9.354;2022-12-07T06:29:02;21.60;41.00
1329;DHT22;658;48.820;9.354;2022-12-07T06:33:02;21.50;40.50
1329;DHT22;658;48.820;9.354;2022-12-07T06:37:03;21.60;40.40
1329;DHT22;658;48.820;9.354;2022-12-07T06:41:04;21.60;40.40
1329;DHT22;658;48.820;9.354;2022-12-07T06:45:05;21.60;40.40
1329;DHT22;658;48.820;9.354;2022-12-07T06:49:06;21.70;40.30
1329;DHT22;658;48.820;9.354;2022-12-07T06:53:08;21.80;40.20
1329;DHT22;658;48.820;9.354;2022-12-07T06:57:09;21.90;40.20
1329;DHT22;658;48.820;9.354;2022-12-07T07:01:11;21.90;40.30
1329;DHT22;658;48.820;9.354;2022-12-07T07:05:12;21.90;40.20
1329;DHT22;658;48.820;9.354;2022-12-07T07:09:12;22.00;40.20
1329;DHT22;658;48.820;9.354;2022-12-07T07:13:13;22.00;40.00
1329;DHT22;658;48.820;9.354;2022-12-07T07:17:13;22.10;39.80
1329;DHT22;658;48.820;9.354;2022-12-07T07:21:14;22.20;39.60
1329;DHT22;658;48.820;9.354;2022-12-07T07:25:15;22.20;39.50
1329;DHT22;658;48.820;9.354;2022-12-07T07:29:16;22.30;39.50
1329;DHT22;658;48.820;9.354;2022-12-07T07:33:16;22.30;39.30
1329;DHT22;658;48.820;9.354;2022-12-07T07:37:17;22.30;39.20
1329;DHT22;658;48.820;9.354;2022-12-07T07:41:18;22.40;39.50
1329;DHT22;658;48.820;9.354;2022-12-07T07:45:19;22.40;39.40
1329;DHT22;658;48.820;9.354;2022-12-07T07:49:20;22.40;39.30
1329;DHT22;658;48.820;9.354;2022-12-07T07:53:20;22.40;39.30
1329;DHT22;658;48.820;9.354;2022-12-07T07:57:21;22.40;39.40
1329;DHT22;658;48.820;9.354;2022-12-07T08:01:21;22.50;39.40
1329;DHT22;658;48.820;9.354;2022-12-07T08:05:22;22.50;39.40
1329;DHT22;658;48.820;9.354;2022-12-07T08:09:22;22.50;39.40
1329;DHT22;658;48.820;9.354;2022-12-07T08:13:23;22.50;39.30
1329;DHT22;658;48.820;9.354;2022-12-07T08:17:24;22.60;39.40
1329;DHT22;658;48.820;9.354;2022-12-07T08:21:24;22.60;39.40
1329;DHT22;658;48.820;9.354;2022-12-07T08:25:25;22.60;39.40
1329;DHT22;658;48.820;9.354;2022-12-07T08:29:25;22.60;39.30
1329;DHT22;658;48.820;9.354;2022-12-07T08:33:27;22.70;39.30
1329;DHT22;658;48.820;9.354;2022-12-07T08:37:27;22.70;39.20
1329;DHT22;658;48.820;9.354;2022-12-07T08:41:28;22.70;39.10
1329;DHT22;658;48.820;9.354;2022-12-07T08:45:28;22.80;39.10
1329;DHT22;658;48.820;9.354;2022-12-07T08:49:41;22.90;38.90
1329;DHT22;658;48.820;9.354;2022-12-07T08:53:43;22.90;38.90
1329;DHT22;658;48.820;9.354;2022-12-07T08:57:44;23.00;39.00
1329;DHT22;658;48.820;9.354;2022-12-07T09:01:44;23.00;39.00
1329;DHT22;658;48.820;9.354;2022-12-07T09:05:45;23.00;39.10
1329;DHT22;658;48.820;9.354;2022-12-07T09:09:46;23.00;38.90
1329;DHT22;658;48.820;9.354;2022-12-07T09:13:46;23.10;38.90
1329;DHT22;658;48.820;9.354;2022-12-07T09:17:47;23.10;38.80
1329;DHT22;658;48.820;9.354;2022-12-07T09:21:47;23.20;39.70
1329;DHT22;658;48.820;9.354;2022-12-07T09:25:48;23.20;38.90
1329;DHT22;658;48.820;9.354;2022-12-07T09:29:49;23.30;38.80
1329;DHT22;658;48.820;9.354;2022-12-07T09:33:57;23.30;38.80
1329;DHT22;658;48.820;9.354;2022-12-07T09:37:59;23.40;38.90
1329;DHT22;658;48.820;9.354;2022-12-07T09:42:03;23.40;38.70
1329;DHT22;658;48.820;9.354;2022-12-07T09:46:04;23.50;38.80
1329;DHT22;658;48.820;9.354;2022-12-07T09:50:12;23.50;38.80
1329;DHT22;658;48.820;9.354;2022-12-07T09:54:14;23.60;38.70
1329;DHT22;658;48.820;9.354;2022-12-07T09:58:23;23.60;38.50
1329;DHT22;658;48.820;9.354;2022-12-07T10:02:28;23.70;38.50
1329;DHT22;658;48.820;9.354;2022-12-07T10:06:32;23.70;38.70
1329;DHT22;658;48.820;9.354;2022-12-07T10:10:34;23.80;38.50
1329;DHT22;658;48.820;9.354;2022-12-07T10:14:54;23.80;38.50
1329;DHT22;658;48.820;9.354;2022-12-07T10:18:55;23.70;38.50
1329;DHT22;658;48.820;9.354;2022-12-07T10:23:04;23.70;38.60
1329;DHT22;658;48.820;9.354;2022-12-07T10:27:09;23.70;38.70
1329;DHT22;658;48.820;9.354;2022-12-07T10:31:19;23.70;38.60
1329;DHT22;658;48.820;9.354;2022-12-07T10:35:29;23.60;38.60
1329;DHT22;658;48.820;9.354;2022-12-07T10:43:47;23.60;38.80
1329;DHT22;658;48.820;9.354;2022-12-07T10:52:20;23.60;38.90
1329;DHT22;658;48.820;9.354;2022-12-07T11:05:20;23.60;38.80
1329;DHT22;658;48.820;9.354;2022-12-07T11:17:56;23.60;38.80
1329;DHT22;658;48.820;9.354;2022-12-07T11:22:06;23.60;38.90
1329;DHT22;658;48.820;9.354;2022-12-07T11:30:20;23.60;38.80
1329;DHT22;658;48.820;9.354;2022-12-07T11:39:02;23.70;38.80
1329;DHT22;658;48.820;9.354;2022-12-07T11:47:40;23.70;38.80
1329;DHT22;658;48.820;9.354;2022-12-07T11:51:39;23.60;38.80
1329;DHT22;658;48.820;9.354;2022-12-07T11:59:51;23.70;38.70
1329;DHT22;658;48.820;9.354;2022-12-07T12:21:22;23.60;38.70
1329;DHT22;658;48.820;9.354;2022-12-07T12:25:34;23.60;38.80
1329;DHT22;658;48.820;9.354;2022-12-07T12:29:39;23.50;38.70
1329;DHT22;658;48.820;9.354;2022-12-07T12:33:47;23.50;38.80
1329;DHT22;658;48.820;9.354;2022-12-07T12:37:49;23.50;38.90
1329;DHT22;658;48.820;9.354;2022-12-07T12:41:56;23.50;39.10
1329;DHT22;658;48.820;9.354;2022-12-07T12:50:32;23.50;39.20
1329;DHT22;658;48.820;9.354;2022-12-07T12:54:35;23.50;39.30
1329;DHT22;658;48.820;9.354;2022-12-07T12:58:39;23.50;39.30
1329;DHT22;658;48.820;9.354;2022-12-07T13:02:50;23.50;39.30
1329;DHT22;658;48.820;9.354;2022-12-07T13:06:52;23.50;39.50
1329;DHT22;658;48.820;9.354;2022-12-07T13:10:53;23.50;39.50
1329;DHT22;658;48.820;9.354;2022-12-07T13:14:55;23.40;40.00
1329;DHT22;658;48.820;9.354;2022-12-07T13:18:56;23.50;39.50
1329;DHT22;658;48.820;9.354;2022-12-07T13:22:58;23.50;39.50
1329;DHT22;658;48.820;9.354;2022-12-07T13:26:59;23.50;39.50
1329;DHT22;658;48.820;9.354;2022-12-07T13:31:11;23.50;39.60
1329;DHT22;658;48.820;9.354;2022-12-07T13:35:53;23.50;39.50
1329;DHT22;658;48.820;9.354;2022-12-07T13:39:57;23.50;39.40
1329;DHT22;658;48.820;9.354;2022-12-07T13:44:07;23.50;39.40
1329;DHT22;658;48.820;9.354;2022-12-07T13:48:15;23.50;39.50
1329;DHT22;658;48.820;9.354;2022-12-07T13:52:19;23.50;39.40
1329;DHT22;658;48.820;9.354;2022-12-07T13:56:27;23.50;39.50
1329;DHT22;658;48.820;9.354;2022-12-07T14:00:32;23.50;39.50
1329;DHT22;658;48.820;9.354;2022-12-07T14:04:37;23.50;39.50
1329;DHT22;658;48.820;9.354;2022-12-07T14:08:43;23.50;39.50
1329;DHT22;658;48.820;9.354;2022-12-07T14:12:45;23.40;39.50
1329;DHT22;658;48.820;9.354;2022-12-07T14:17:09;23.40;39.50
1329;DHT22;658;48.820;9.354;2022-12-07T14:21:17;23.40;39.50
1329;DHT22;658;48.820;9.354;2022-12-07T14:25:25;23.40;39.60
1329;DHT22;658;48.820;9.354;2022-12-07T14:29:32;23.30;39.80
1329;DHT22;658;48.820;9.354;2022-12-07T14:33:41;23.30;39.90
1329;DHT22;658;48.820;9.354;2022-12-07T14:37:45;23.30;39.90
1329;DHT22;658;48.820;9.354;2022-12-07T14:41:49;23.30;39.70
1329;DHT22;658;48.820;9.354;2022-12-07T14:45:50;23.30;39.80
1329;DHT22;658;48.820;9.354;2022-12-07T14:49:53;23.40;39.80
1329;DHT22;658;48.820;9.354;2022-12-07T14:53:54;23.30;39.80
1329;DHT22;658;48.820;9.354;2022-12-07T14:57:55;23.30;39.90
1329;DHT22;658;48.820;9.354;2022-12-07T15:01:56;23.30;39.90
1329;DHT22;658;48.820;9.354;2022-12-07T15:05:56;23.10;36.40
1329;DHT22;658;48.820;9.354;2022-12-07T15:09:57;22.50;35.10
1329;DHT22;658;48.820;9.354;2022-12-07T15:14:00;22.50;35.90
1329;DHT22;658;48.820;9.354;2022-12-07T15:18:12;22.70;36.00
1329;DHT22;658;48.820;9.354;2022-12-07T15:22:13;22.90;36.00
1329;DHT22;658;48.820;9.354;2022-12-07T15:26:13;22.90;36.10
1329;DHT22;658;48.820;9.354;2022-12-07T15:30:14;23.00;36.30
1329;DHT22;658;48.820;9.354;2022-12-07T15:34:15;23.00;36.40
1329;DHT22;658;48.820;9.354;2022-12-07T15:38:16;23.00;36.50
1329;DHT22;658;48.820;9.354;2022-12-07T15:42:16;22.90;36.60
1329;DHT22;658;48.820;9.354;2022-12-07T15:46:17;22.90;36.70
1329;DHT22;658;48.820;9.354;2022-12-07T15:50:17;22.90;36.70
1329;DHT22;658;48.820;9.354;2022-12-07T15:54:24;22.90;36.80
1329;DHT22;658;48.820;9.354;2022-12-07T15:58:25;22.90;36.90
1329;DHT22;658;48.820;9.354;2022-12-07T16:02:26;22.90;37.10
1329;DHT22;658;48.820;9.354;2022-12-07T16:06:27;22.90;37.20
1329;DHT22;658;48.820;9.354;2022-12-07T16:10:28;22.90;38.10
1329;DHT22;658;48.820;9.354;2022-12-07T16:14:28;22.90;37.90
1329;DHT22;658;48.820;9.354;2022-12-07T16:18:29;22.90;37.90
1329;DHT22;658;48.820;9.354;2022-12-07T16:22:30;22.90;38.20
1329;DHT22;658;48.820;9.354;2022-12-07T16:26:31;22.90;38.20
1329;DHT22;658;48.820;9.354;2022-12-07T16:30:31;22.90;38.10
1329;DHT22;658;48.820;9.354;2022-12-07T16:34:32;22.90;38.10
1329;DHT22;658;48.820;9.354;2022-12-07T16:38:33;22.90;38.10
1329;DHT22;658;48.820;9.354;2022-12-07T16:42:35;22.90;38.20
1329;DHT22;658;48.820;9.354;2022-12-07T16:46:38;22.90;38.20
1329;DHT22;658;48.820;9.354;2022-12-07T16:50:42;22.90;38.20
1329;DHT22;658;48.820;9.354;2022-12-07T16:54:43;22.90;38.20
1329;DHT22;658;48.820;9.354;2022-12-07T16:58:44;22.90;38.40
1329;DHT22;658;48.820;9.354;2022-12-07T17:02:47;22.90;38.50
1329;DHT22;658;48.820;9.354;2022-12-07T17:06:47;22.90;38.50
1329;DHT22;658;48.820;9.354;2022-12-07T17:10:51;22.90;38.60
1329;DHT22;658;48.820;9.354;2022-12-07T17:14:52;22.90;38.80
1329;DHT22;658;48.820;9.354;2022-12-07T17:19:13;22.80;38.90
1329;DHT22;658;48.820;9.354;2022-12-07T17:23:14;22.80;39.20
1329;DHT22;658;48.820;9.354;2022-12-07T17:27:15;22.80;39.30
1329;DHT22;658;48.820;9.354;2022-12-07T17:31:17;22.80;39.40
1329;DHT22;658;48.820;9.354;2022-12-07T17:35:18;22.80;39.40
1329;DHT22;658;48.820;9.354;2022-12-07T17:39:19;22.80;39.50
1329;DHT22;658;48.820;9.354;2022-12-07T17:43:19;22.90;39.50
1329;DHT22;658;48.820;9.354;2022-12-07T17:47:20;22.80;39.40
1329;DHT22;658;48.820;9.354;2022-12-07T17:51:21;22.90;39.50
1329;DHT22;658;48.820;9.354;2022-12-07T17:55:44;22.90;39.30
1329;DHT22;658;48.820;9.354;2022-12-07T17:59:45;22.90;39.40
1329;DHT22;658;48.820;9.354;2022-12-07T18:03:45;22.90;39.40
1329;DHT22;658;48.820;9.354;2022-12-07T18:07:46;23.00;39.50
1329;DHT22;658;48.820;9.354;2022-12-07T18:11:47;23.00;39.40
1329;DHT22;658;48.820;9.354;2022-12-07T18:15:55;23.00;39.30
1329;DHT22;658;48.820;9.354;2022-12-07T18:19:56;23.00;39.30
1329;DHT22;658;48.820;9.354;2022-12-07T18:23:59;23.00;39.40
1329;DHT22;658;48.820;9.354;2022-12-07T18:28:03;23.00;39.40
1329;DHT22;658;48.820;9.354;2022-12-07T18:32:03;23.00;39.50
1329;DHT22;658;48.820;9.354;2022-12-07T18:36:05;23.00;39.70
1329;DHT22;658;48.820;9.354;2022-12-07T18:40:07;23.00;39.60
1329;DHT22;658;48.820;9.354;2022-12-07T18:44:08;23.00;39.60
1329;DHT22;658;48.820;9.354;2022-12-07T18:48:09;23.00;39.70
1329;DHT22;658;48.820;9.354;2022-12-07T18:52:09;23.00;39.50
1329;DHT22;658;48.820;9.354;2022-12-07T18:56:16;23.00;40.20
1329;DHT22;658;48.820;9.354;2022-12-07T19:00:18;22.90;39.60
1329;DHT22;658;48.820;9.354;2022-12-07T19:04:19;23.00;39.80
1329;DHT22;658;48.820;9.354;2022-12-07T19:08:20;23.00;39.60
1329;DHT22;658;48.820;9.354;2022-12-07T19:12:20;23.00;39.50
1329;DHT22;658;48.820;9.354;2022-12-07T19:16:21;23.00;39.40
1329;DHT22;658;48.820;9.354;2022-12-07T19:20:22;23.00;39.30
1329;DHT22;658;48.820;9.354;2022-12-07T19:24:22;23.00;39.20
1329;DHT22;658;48.820;9.354;2022-12-07T19:28:23;23.00;39.30
1329;DHT22;658;48.820;9.354;2022-12-07T19:32:24;23.00;39.40
1329;DHT22;658;48.820;9.354;2022-12-07T19:36:25;23.00;39.40
1329;DHT22;658;48.820;9.354;2022-12-07T19:40:26;22.90;39.50
1329;DHT22;658;48.820;9.354;2022-12-07T19:44:29;23.00;39.70
1329;DHT22;658;48.820;9.354;2022-12-07T19:48:33;23.00;39.70
1329;DHT22;658;48.820;9.354;2022-12-07T19:52:34;22.90;39.80
1329;DHT22;658;48.820;9.354;2022-12-07T19:56:34;22.90;39.80
1329;DHT22;658;48.820;9.354;2022-12-07T20:00:35;23.00;39.90
1329;DHT22;658;48.820;9.354;2022-12-07T20:04:38;22.90;39.80
1329;DHT22;658;48.820;9.354;2022-12-07T20:08:42;22.90;39.90
1329;DHT22;658;48.820;9.354;2022-12-07T20:12:43;23.00;39.90
1329;DHT22;658;48.820;9.354;2022-12-07T20:17:02;23.00;39.70
1329;DHT22;658;48.820;9.354;2022-12-07T20:21:03;23.00;39.80
1329;DHT22;658;48.820;9.354;2022-12-07T20:25:05;23.00;39.90
1329;DHT22;658;48.820;9.354;2022-12-07T20:29:07;23.10;39.90
1329;DHT22;658;48.820;9.354;2022-12-07T20:33:08;23.00;39.80
1329;DHT22;658;48.820;9.354;2022-12-07T20:37:08;23.00;40.10
1329;DHT22;658;48.820;9.354;2022-12-07T20:41:11;23.00;40.00
1329;DHT22;658;48.820;9.354;2022-12-07T20:45:32;23.00;39.90
1329;DHT22;658;48.820;9.354;2022-12-07T20:49:33;23.00;40.00
1329;DHT22;658;48.820;9.354;2022-12-07T20:53:34;23.00;39.90
1329;DHT22;658;48.820;9.354;2022-12-07T20:57:35;23.00;40.00
1329;DHT22;658;48.820;9.354;2022-12-07T21:01:38;23.00;39.90
1329;DHT22;658;48.820;9.354;2022-12-07T21:05:43;23.00;39.90
1329;DHT22;658;48.820;9.354;2022-12-07T21:09:44;23.00;40.00
1329;DHT22;658;48.820;9.354;2022-12-07T21:13:45;23.00;40.00
1329;DHT22;658;48.820;9.354;2022-12-07T21:17:46;23.00;39.90
1329;DHT22;658;48.820;9.354;2022-12-07T21:21:47;23.00;39.90
1329;DHT22;658;48.820;9.354;2022-12-07T21:25:47;23.00;40.00
1329;DHT22;658;48.820;9.354;2022-12-07T21:29:48;23.00;40.10
1329;DHT22;658;48.820;9.354;2022-12-07T21:33:49;23.00;40.00
1329;DHT22;658;48.820;9.354;2022-12-07T21:37:52;23.00;40.10
1329;DHT22;658;48.820;9.354;2022-12-07T21:41:53;23.10;40.00
1329;DHT22;658;48.820;9.354;2022-12-07T21:45:54;23.00;40.00
1329;DHT22;658;48.820;9.354;2022-12-07T21:49:55;23.00;40.00
1329;DHT22;658;48.820;9.354;2022-12-07T21:53:57;23.00;40.00
1329;DHT22;658;48.820;9.354;2022-12-07T21:57:58;23.00;40.00
1329;DHT22;658;48.820;9.354;2022-12-07T22:01:58;23.00;40.10
1329;DHT22;658;48.820;9.354;2022-12-07T22:05:59;23.00;40.10
1329;DHT22;658;48.820;9.354;2022-12-07T22:10:00;22.90;40.10
1329;DHT22;658;48.820;9.354;2022-12-07T22:14:02;23.00;40.00
1329;DHT22;658;48.820;9.354;2022-12-07T22:18:22;23.10;40.00
1329;DHT22;658;48.820;9.354;2022-12-07T22:22:23;23.00;40.00
1329;DHT22;658;48.820;9.354;2022-12-07T22:26:23;22.90;40.00
1329;DHT22;658;48.820;9.354;2022-12-07T22:30:24;22.90;40.10
1329;DHT22;658;48.820;9.354;2022-12-07T22:34:25;22.80;40.00
1329;DHT22;658;48.820;9.354;2022-12-07T22:38:26;22.80;40.00
1329;DHT22;658;48.820;9.354;2022-12-07T22:42:27;22.80;40.10
1329;DHT22;658;48.820;9.354;2022-12-07T22:46:27;22.80;40.10
1329;DHT22;658;48.820;9.354;2022-12-07T22:50:31;22.70;40.10
1329;DHT22;658;48.820;9.354;2022-12-07T22:54:31;22.70;40.00
1329;DHT22;658;48.820;9.354;2022-12-07T22:58:32;22.60;40.10
1329;DHT22;658;48.820;9.354;2022-12-07T23:02:36;22.60;40.10
1329;DHT22;658;48.820;9.354;2022-12-07T23:06:36;22.60;40.10
1329;DHT22;658;48.820;9.354;2022-12-07T23:10:42;22.60;40.10
1329;DHT22;658;48.820;9.354;2022-12-07T23:14:43;22.60;40.10
1329;DHT22;658;48.820;9.354;2022-12-07T23:18:43;22.50;40.10
1329;DHT22;658;48.820;9.354;2022-12-07T23:22:44;22.50;40.10
1329;DHT22;658;48.820;9.354;2022-12-07T23:26:45;22.40;40.10
1329;DHT22;658;48.820;9.354;2022-12-07T23:30:46;22.40;40.10
1329;DHT22;658;48.820;9.354;2022-12-07T23:34:47;22.40;40.10
1329;DHT22;658;48.820;9.354;2022-12-07T23:38:55;22.40;40.20
1329;DHT22;658;48.820;9.354;2022-12-07T23:42:56;22.30;40.20
1329;DHT22;658;48.820;9.354;2022-12-07T23:46:57;22.30;40.30
1329;DHT22;658;48.820;9.354;2022-12-07T23:50:58;22.30;40.30
1329;DHT22;658;48.820;9.354;2022-12-07T23:54:59;22.20;40.20
1329;DHT22;658;48.820;9.354;2022-12-07T23:59:00;22.20;40.30
